createdAt,value
2019-04-03T00:00:36.279Z,68.99
2019-04-03T00:03:43.874Z,68.99
2019-04-03T00:06:51.290Z,66.18
2019-04-03T00:09:58.330Z,65.93
2019-04-03T00:13:05.076Z,68.69
2019-04-03T00:16:15.334Z,66.82
2019-04-03T00:19:21.318Z,67.33
2019-04-03T00:22:29.089Z,66.68
2019-04-03T00:25:36.329Z,65.76
2019-04-03T00:32:58.326Z,69.63
2019-04-03T00:36:04.570Z,67.74
2019-04-03T00:39:10.706Z,66.98
2019-04-03T00:42:17.713Z,67.17
2019-04-03T00:45:25.244Z,67.17
2019-04-03T00:48:32.589Z,67.27
2019-04-03T00:51:39.883Z,68.24
2019-04-03T00:54:47.275Z,68.24
2019-04-03T00:57:56.278Z,69.56
2019-04-03T01:01:03.403Z,69.56
2019-04-03T01:04:10.796Z,69.38
2019-04-03T01:07:18.294Z,68.20
2019-04-03T01:10:26.285Z,68.85
2019-04-03T01:13:33.600Z,68.86
2019-04-03T01:16:41.273Z,72.98
2019-04-03T01:19:48.283Z,72.98
2019-04-03T01:22:55.245Z,70.66
2019-04-03T01:26:02.480Z,69.27
2019-04-03T01:29:10.607Z,69.69
2019-04-03T01:32:18.705Z,71.83
2019-04-03T01:37:55.127Z,72.16
2019-04-03T01:41:02.472Z,70.11
2019-04-03T01:44:10.290Z,70.78
2019-04-03T01:47:17.797Z,70.99
2019-04-03T01:50:28.303Z,73.30
2019-04-03T01:53:34.531Z,72.48
2019-04-03T01:56:41.752Z,72.60
2019-04-03T01:59:48.911Z,72.60
2019-04-03T02:02:56.047Z,71.85
2019-04-03T02:06:03.305Z,72.23
2019-04-03T02:09:11.441Z,71.51
2019-04-03T02:12:19.762Z,74.05
2019-04-03T02:15:27.790Z,71.99
2019-04-03T02:18:35.269Z,71.99
2019-04-03T02:21:42.652Z,72.02
2019-04-03T02:24:50.395Z,76.09
2019-04-03T02:27:57.544Z,73.81
2019-04-03T02:31:05.738Z,74.11
2019-04-03T02:34:13.336Z,74.11
2019-04-03T02:37:20.306Z,74.92
2019-04-03T02:40:31.216Z,73.59
2019-04-03T02:43:36.349Z,73.59
2019-04-03T02:46:43.648Z,74.94
2019-04-03T02:49:50.733Z,74.94
2019-04-03T02:52:59.091Z,73.47
2019-04-03T02:56:06.962Z,74.55
2019-04-03T02:59:14.471Z,75.21
2019-04-03T03:02:21.641Z,73.77
2019-04-03T03:05:29.228Z,74.17
2019-04-03T03:08:40.528Z,74.17
2019-04-03T03:11:45.767Z,73.84
2019-04-03T03:14:52.962Z,73.73
2019-04-03T03:18:01.441Z,73.32
2019-04-03T03:21:11.664Z,75.14
2019-04-03T03:24:18.324Z,73.77
2019-04-03T03:27:25.459Z,73.89
2019-04-03T03:30:44.239Z,74.52
2019-04-03T03:33:42.690Z,74.52
2019-04-03T03:36:50.569Z,74.33
2019-04-03T03:39:58.360Z,77.25
2019-04-03T03:43:06.695Z,75.82
2019-04-03T03:46:14.543Z,76.29
2019-04-03T03:49:22.265Z,76.73
2019-04-03T03:52:29.842Z,76.73
2019-04-03T03:55:37.609Z,75.58
2019-04-03T03:58:46.133Z,78.05
2019-04-03T04:01:53.567Z,75.86
2019-04-03T04:05:01.679Z,75.40
2019-04-03T04:08:10.479Z,75.40
2019-04-03T04:11:19.243Z,77.04
2019-04-03T04:14:26.421Z,75.78
2019-04-03T04:17:33.625Z,77.09
2019-04-03T04:20:40.636Z,77.26
2019-04-03T04:23:47.804Z,76.08
2019-04-03T04:26:55.138Z,77.91
2019-04-03T04:30:02.876Z,76.24
2019-04-03T04:33:10.671Z,76.39
2019-04-03T04:36:17.599Z,77.20
2019-04-03T04:39:24.625Z,76.97
2019-04-03T04:42:34.410Z,76.97
2019-04-03T04:45:42.688Z,77.61
2019-04-03T04:48:51.383Z,77.93
2019-04-03T04:51:58.443Z,76.62
2019-04-03T04:55:06.990Z,76.17
2019-04-03T04:58:14.624Z,78.34
2019-04-03T05:01:21.719Z,78.63
2019-04-03T05:04:28.672Z,76.38
2019-04-03T05:07:35.865Z,79.39
2019-04-03T05:10:43.483Z,77.24
2019-04-03T05:13:49.628Z,76.85
2019-04-03T05:16:57.289Z,76.49
2019-04-03T05:20:05.322Z,76.38
2019-04-03T05:23:12.990Z,75.21
2019-04-03T05:26:21.478Z,75.21
2019-04-03T05:29:29.414Z,75.65
2019-04-03T05:32:36.516Z,75.65
2019-04-03T05:35:46.478Z,73.10
2019-04-03T05:38:53.540Z,73.10
2019-04-03T05:42:01.662Z,75.59
2019-04-03T05:45:09.730Z,73.98
2019-04-03T05:48:18.407Z,72.24
2019-04-03T05:51:25.991Z,72.42
2019-04-03T05:54:33.063Z,72.09
2019-04-03T05:57:40.607Z,71.56
2019-04-03T06:00:49.194Z,71.08
2019-04-03T06:03:56.916Z,70.19
2019-04-03T06:07:04.385Z,70.63
2019-04-03T06:10:12.261Z,70.01
2019-04-03T06:13:19.907Z,69.11
2019-04-03T06:16:27.486Z,69.74
2019-04-03T06:19:36.470Z,69.43
2019-04-03T06:22:43.748Z,68.71
2019-04-03T06:25:50.948Z,68.53
2019-04-03T06:28:58.271Z,69.92
2019-04-03T06:32:06.362Z,68.43
2019-04-03T06:35:14.421Z,68.52
2019-04-03T06:38:22.474Z,68.25
2019-04-03T06:41:31.144Z,68.43
2019-04-03T06:44:38.336Z,68.08
2019-04-03T06:47:45.553Z,68.48
2019-04-03T06:50:54.251Z,67.78
2019-04-03T06:54:01.891Z,67.78
2019-04-03T06:57:08.917Z,66.65
2019-04-03T07:00:18.317Z,65.69
2019-04-03T07:03:26.225Z,65.40
2019-04-03T07:06:33.796Z,64.74
2019-04-03T07:09:41.588Z,63.64
2019-04-03T07:12:49.512Z,63.89
2019-04-03T07:15:57.216Z,63.89
2019-04-03T07:19:06.034Z,63.79
2019-04-03T07:22:13.292Z,63.79
2019-04-03T07:25:20.518Z,62.65
2019-04-03T07:28:30.216Z,63.44
2019-04-03T07:31:37.541Z,63.44
2019-04-03T07:34:44.998Z,62.91
2019-04-03T07:37:52.123Z,62.91
2019-04-03T07:40:59.350Z,60.44
2019-04-03T07:44:07.676Z,56.52
2019-04-03T07:47:14.679Z,56.52
2019-04-03T07:50:22.286Z,54.67
2019-04-03T07:53:31.488Z,55.15
2019-04-03T07:56:38.059Z,54.07
2019-04-03T07:59:45.630Z,54.28
2019-04-03T08:02:52.628Z,55.01
2019-04-03T08:06:01.006Z,55.71
2019-04-03T08:09:10.378Z,55.71
2019-04-03T08:12:18.146Z,54.86
2019-04-03T08:15:25.325Z,55.04
2019-04-03T08:18:32.516Z,54.97
2019-04-03T08:21:39.946Z,54.71
2019-04-03T08:24:47.587Z,54.26
2019-04-03T08:27:55.763Z,53.51
2019-04-03T08:31:04.522Z,55.09
2019-04-03T08:34:16.569Z,54.84
2019-04-03T08:37:29.748Z,55.80
2019-04-03T08:40:30.415Z,54.17
2019-04-03T08:43:37.901Z,54.33
2019-04-03T08:46:45.281Z,55.74
2019-04-03T08:49:53.089Z,55.77
2019-04-03T08:53:00.301Z,57.45
2019-04-03T08:56:06.759Z,56.84
2019-04-03T08:59:13.958Z,56.07
2019-04-03T09:02:21.471Z,54.45
2019-04-03T09:05:28.479Z,57.11
2019-04-03T09:08:35.494Z,56.81
2019-04-03T09:11:43.556Z,51.80
2019-04-03T09:14:50.834Z,52.30
2019-04-03T09:17:58.437Z,52.30
2019-04-03T09:21:06.586Z,47.18
2019-04-03T09:24:15.072Z,44.97
2019-04-03T09:27:23.014Z,44.97
2019-04-03T09:30:30.275Z,45.70
2019-04-03T09:33:37.275Z,46.60
2019-04-03T09:36:44.402Z,47.43
2019-04-03T09:39:51.069Z,46.24
2019-04-03T09:42:58.290Z,47.89
2019-04-03T09:46:05.531Z,47.71
2019-04-03T09:49:12.572Z,50.31
2019-04-03T09:52:19.557Z,54.21
2019-04-03T09:55:27.050Z,54.21
2019-04-03T09:58:35.581Z,56.76
2019-04-03T10:01:42.277Z,57.56
2019-04-03T10:04:51.148Z,57.57
2019-04-03T10:07:58.946Z,57.13
2019-04-03T10:11:05.936Z,57.13
2019-04-03T10:46:21.212Z,40.65
2019-04-03T10:49:31.531Z,45.42
2019-04-03T10:52:38.141Z,46.61
2019-04-03T10:55:45.271Z,46.03
2019-04-03T10:58:52.789Z,46.98
2019-04-03T11:02:00.838Z,47.91
2019-04-03T11:05:12.003Z,45.62
2019-04-03T11:08:19.902Z,45.62
2019-04-03T11:11:29.676Z,44.35
2019-04-03T11:14:39.224Z,44.34
2019-04-03T11:17:48.464Z,43.45
2019-04-03T11:20:55.932Z,43.54
2019-04-03T11:24:06.716Z,44.65
2019-04-03T11:27:16.291Z,44.35
2019-04-03T11:30:24.903Z,43.92
2019-04-03T11:33:33.009Z,46.33
2019-04-03T11:36:40.413Z,46.33
2019-04-03T11:39:47.676Z,46.46
2019-04-03T11:42:55.504Z,46.46
2019-04-03T11:46:02.950Z,46.71
2019-04-03T11:49:10.628Z,47.32
2019-04-03T11:52:17.761Z,44.70
2019-04-03T11:55:28.868Z,44.70
2019-04-03T11:58:36.928Z,43.51
2019-04-03T12:01:45.269Z,43.82
2019-04-03T12:04:54.534Z,43.46
2019-04-03T12:08:05.349Z,42.06
2019-04-03T12:11:12.628Z,42.05
2019-04-03T12:14:19.514Z,41.93
2019-04-03T12:17:29.384Z,41.66
2019-04-03T12:20:43.737Z,41.42
2019-04-03T12:23:50.766Z,39.92
2019-04-03T12:26:58.029Z,40.86
2019-04-03T12:30:11.308Z,39.80
2019-04-03T12:33:21.531Z,39.77
2019-04-03T12:36:31.296Z,37.67
2019-04-03T12:39:37.870Z,37.43
2019-04-03T12:42:48.427Z,37.92
2019-04-03T12:45:57.402Z,36.16
2019-04-03T12:49:08.795Z,34.96
2019-04-03T12:52:24.387Z,35.58
2019-04-03T12:55:34.563Z,35.67
2019-04-03T12:58:43.675Z,35.94
2019-04-03T13:01:52.001Z,37.25
2019-04-03T13:05:01.450Z,36.62
2019-04-03T13:08:10.920Z,36.48
2019-04-03T13:11:20.552Z,36.96
2019-04-03T13:14:32.570Z,37.57
2019-04-03T13:17:43.776Z,38.19
2019-04-03T13:20:52.079Z,38.08
2019-04-03T13:24:03.123Z,40.13
2019-04-03T13:27:12.368Z,41.37
2019-04-03T13:30:20.287Z,41.97
2019-04-03T13:33:29.302Z,41.82
2019-04-03T13:36:41.036Z,42.94
2019-04-03T13:39:48.574Z,42.47
2019-04-03T13:42:58.038Z,37.95
2019-04-03T13:46:05.903Z,37.09
2019-04-03T13:49:17.128Z,36.17
2019-04-03T13:52:24.509Z,37.34
2019-04-03T13:55:38.731Z,35.06
2019-04-03T13:58:44.900Z,36.37
2019-04-03T14:01:53.076Z,37.36
2019-04-03T14:05:00.859Z,38.60
2019-04-03T14:08:08.404Z,39.09
2019-04-03T14:11:16.366Z,41.06
2019-04-03T14:14:26.771Z,39.24
2019-04-03T14:17:39.153Z,35.67
2019-04-03T14:20:50.398Z,35.67
2019-04-03T14:24:00.290Z,35.66
2019-04-03T14:27:19.407Z,36.14
2019-04-03T14:30:22.024Z,38.07
2019-04-03T14:33:44.264Z,39.22
2019-04-03T14:36:47.905Z,37.02
2019-04-03T14:39:56.776Z,36.58
2019-04-03T14:43:04.573Z,39.12
2019-04-03T14:46:11.821Z,39.78
2019-04-03T14:49:20.261Z,42.89
2019-04-03T14:52:27.576Z,42.92
2019-04-03T14:55:46.657Z,43.23
2019-04-03T14:58:45.524Z,42.20
2019-04-03T15:01:52.838Z,44.77
2019-04-03T15:05:00.457Z,44.77
2019-04-03T15:08:08.174Z,45.22
2019-04-03T15:11:15.638Z,45.37
2019-04-03T15:14:26.908Z,45.93
2019-04-03T15:17:36.069Z,46.55
2019-04-03T15:20:43.437Z,45.93
2019-04-03T15:23:50.870Z,47.18
2019-04-03T15:26:58.582Z,48.36
2019-04-03T15:30:10.973Z,48.31
2019-04-03T15:36:40.869Z,49.06
2019-04-03T15:39:55.703Z,49.08
2019-04-03T15:42:57.620Z,49.27
2019-04-03T15:46:05.251Z,49.52
2019-04-03T15:49:13.214Z,50.70
2019-04-03T15:52:20.545Z,51.57
2019-04-03T15:55:29.316Z,52.47
2019-04-03T15:58:36.553Z,52.47
2019-04-03T16:01:43.647Z,52.26
2019-04-03T16:04:51.701Z,52.26
2019-04-03T16:07:59.698Z,51.02
2019-04-03T16:11:08.088Z,50.78
2019-04-03T16:14:16.873Z,52.43
2019-04-03T16:17:24.829Z,53.01
2019-04-03T16:20:32.626Z,53.78
2019-04-03T16:23:41.711Z,53.95
2019-04-03T16:26:49.429Z,53.52
2019-04-03T16:29:55.568Z,53.95
2019-04-03T16:33:04.959Z,53.81
2019-04-03T16:36:15.250Z,53.90
2019-04-03T16:39:22.583Z,54.28
2019-04-03T16:42:29.599Z,54.28
2019-04-03T16:45:38.944Z,54.44
2019-04-03T16:48:49.889Z,54.01
2019-04-03T16:51:56.940Z,54.71
2019-04-03T16:55:04.484Z,54.63
2019-04-03T16:58:11.687Z,56.48
2019-04-03T17:01:19.309Z,56.48
2019-04-03T17:04:28.654Z,55.36
2019-04-03T17:07:37.699Z,57.14
2019-04-03T17:10:45.454Z,58.29
2019-04-03T17:13:52.817Z,59.15
2019-04-03T17:16:59.740Z,58.10
2019-04-03T17:20:09.255Z,58.76
2019-04-03T17:23:21.402Z,59.94
2019-04-03T17:26:28.319Z,59.52
2019-04-03T17:29:36.403Z,60.89
2019-04-03T17:32:44.468Z,61.91
2019-04-03T17:35:52.282Z,63.60
2019-04-03T17:39:03.601Z,62.81
2019-04-03T17:42:10.241Z,62.30
2019-04-03T17:45:18.361Z,63.99
2019-04-03T17:48:26.538Z,63.13
2019-04-03T17:51:34.205Z,65.71
2019-04-03T17:54:42.309Z,64.09
2019-04-03T17:57:49.334Z,66.12
2019-04-03T18:00:56.667Z,66.32
2019-04-03T18:04:04.134Z,67.15
2019-04-03T18:07:12.223Z,69.13
2019-04-03T18:10:20.183Z,70.96
2019-04-03T18:13:31.397Z,68.86
2019-04-03T18:16:38.876Z,70.98
2019-04-03T18:19:46.126Z,70.98
2019-04-03T18:22:53.689Z,69.81
2019-04-03T18:26:03.438Z,70.66
2019-04-03T18:29:10.955Z,69.38
2019-04-03T18:32:18.333Z,71.82
2019-04-03T18:35:29.717Z,71.94
2019-04-03T18:38:38.597Z,70.63
2019-04-03T18:41:47.726Z,70.08
2019-04-03T18:44:55.955Z,69.53
2019-04-03T18:48:04.485Z,71.56
2019-04-03T18:51:13.364Z,70.62
2019-04-03T18:54:19.653Z,70.62
2019-04-03T18:57:28.464Z,72.27
2019-04-03T19:00:37.446Z,72.27
2019-04-03T19:03:45.005Z,71.00
2019-04-03T19:06:52.503Z,72.02
2019-04-03T19:10:07.286Z,70.07
2019-04-03T19:13:14.002Z,70.90
2019-04-03T19:16:29.491Z,71.97
2019-04-03T19:19:33.357Z,71.97
2019-04-03T19:22:41.973Z,72.12
2019-04-03T19:25:49.416Z,74.75
2019-04-03T19:29:00.023Z,72.94
2019-04-03T19:32:11.839Z,76.62
2019-04-03T19:35:18.270Z,75.09
2019-04-03T19:38:28.665Z,78.16
2019-04-03T19:41:36.903Z,77.60
2019-04-03T19:44:44.297Z,78.79
2019-04-03T19:47:54.536Z,80.05
2019-04-03T19:51:03.341Z,84.24
2019-04-03T19:54:10.647Z,84.24
2019-04-03T19:57:17.709Z,87.78
2019-04-03T20:00:25.306Z,89.24
2019-04-03T20:03:32.790Z,90.54
2019-04-03T20:06:39.930Z,90.90
2019-04-03T20:09:47.046Z,91.09
2019-04-03T20:12:56.583Z,91.16
2019-04-03T20:16:05.336Z,91.16
2019-04-03T20:19:12.743Z,90.16
2019-04-03T20:22:19.990Z,90.08
2019-04-03T20:25:27.319Z,90.09
2019-04-03T20:28:35.252Z,90.87
2019-04-03T20:31:48.251Z,91.17
2019-04-03T20:34:53.265Z,91.17
2019-04-03T20:38:00.810Z,91.58
2019-04-03T20:41:09.647Z,92.02
2019-04-03T20:44:17.546Z,91.81
2019-04-03T20:47:26.719Z,92.26
2019-04-03T20:50:37.686Z,92.15
2019-04-03T20:53:43.609Z,91.83
2019-04-03T20:56:57.822Z,90.02
2019-04-03T21:00:02.805Z,90.02
2019-04-03T21:03:12.701Z,90.56
2019-04-03T21:06:21.141Z,90.61
2019-04-03T21:09:30.595Z,89.90
2019-04-03T21:12:37.672Z,90.28
2019-04-03T21:15:45.591Z,90.13
2019-04-03T21:18:53.936Z,89.87
2019-04-03T21:22:00.937Z,90.52
2019-04-03T21:25:08.758Z,89.65
2019-04-03T21:28:15.807Z,90.38
2019-04-03T21:31:25.618Z,90.30
2019-04-03T21:34:33.753Z,89.88
2019-04-03T21:37:41.120Z,90.31
2019-04-03T21:40:48.332Z,89.97
2019-04-03T21:43:55.576Z,89.99
2019-04-03T21:47:04.430Z,90.83
2019-04-03T21:50:11.777Z,90.08
2019-04-03T21:53:18.873Z,90.08
2019-04-03T21:56:25.693Z,89.38
2019-04-03T21:59:32.539Z,91.09
2019-04-03T22:02:40.686Z,89.59
2019-04-03T22:05:48.061Z,89.59
2019-04-03T22:08:55.411Z,90.44
2019-04-03T22:12:05.891Z,90.22
2019-04-03T22:15:14.557Z,91.24
2019-04-03T22:18:23.783Z,91.24
2019-04-03T22:21:32.514Z,89.82
2019-04-03T22:24:40.858Z,90.98
2019-04-03T22:27:47.954Z,90.51
2019-04-03T22:30:55.113Z,88.80
2019-04-03T22:34:02.290Z,88.80
2019-04-03T22:37:09.327Z,89.07
2019-04-03T22:40:16.285Z,89.42
2019-04-03T22:43:23.284Z,90.48
2019-04-03T22:46:30.441Z,91.69
2019-04-03T22:49:37.608Z,90.31
2019-04-03T22:52:46.295Z,90.31
2019-04-03T22:55:53.347Z,91.77
2019-04-03T22:59:00.640Z,90.39
2019-04-03T23:02:08.648Z,90.28
2019-04-03T23:05:17.171Z,90.28
2019-04-03T23:08:25.251Z,89.93
2019-04-03T23:11:32.950Z,91.52
2019-04-03T23:14:40.554Z,90.91
2019-04-03T23:17:48.110Z,90.96
2019-04-03T23:20:55.932Z,90.96
2019-04-03T23:24:03.102Z,90.74
2019-04-03T23:27:10.461Z,90.74
2019-04-03T23:30:18.881Z,91.14
2019-04-03T23:33:26.331Z,91.08
2019-04-03T23:36:34.046Z,91.08
2019-04-03T23:39:41.365Z,90.72
2019-04-03T23:42:48.369Z,90.89
2019-04-03T23:45:55.407Z,91.34
2019-04-03T23:49:02.283Z,91.11
2019-04-03T23:52:09.627Z,91.55
2019-04-03T23:55:16.734Z,91.01
2019-04-03T23:58:25.264Z,90.58
